Time;durP1;ratioP1;P1;durP2;ratioP2;P2;SDS_P1;SDS_P2;PMS_P1;PMS_P2;Temp;Humidity;BMP_temperature;BMP_pressure;BME280_temperature;BME280_humidity;BME280_pressure;Samples;Min_cycle;Max_cycle;Signal;HPM_P1;HPM_P2
2022/10/02 00:02:18;;;;;;;20.08;4.47;;;;;;;;;;5032719;28;20186;-71
2022/10/02 00:04:54;;;;;;;25.88;5.55;;;;;;;;;;5026820;28;20278;-71
2022/10/02 00:07:35;;;;;;;28.75;4.80;;;;;;;;;;5025303;28;20189;-73
2022/10/02 00:10:11;;;;;;;30.08;5.43;;;;;;;;;;5040556;28;20264;-72
2022/10/02 00:12:37;;;;;;;26.85;5.03;;;;;;;;;;5029098;28;20247;-73
2022/10/02 00:15:13;;;;;;;24.17;5.15;;;;;;;;;;5028588;28;20198;-72
2022/10/02 00:17:42;;;;;;;23.27;5.32;;;;;;;;;;5029883;28;20933;-71
2022/10/02 00:20:17;;;;;;;27.30;4.85;;;;;;;;;;5030639;28;20229;-71
2022/10/02 00:22:59;;;;;;;31.58;6.00;;;;;;;;;;5028581;28;20714;-71
2022/10/02 00:25:33;;;;;;;32.90;5.85;;;;;;;;;;5034475;28;20182;-71
2022/10/02 00:28:04;;;;;;;30.02;5.18;;;;;;;;;;5029629;28;20587;-70
2022/10/02 00:30:35;;;;;;;30.25;5.32;;;;;;;;;;5038987;28;20237;-70
2022/10/02 00:33:16;;;;;;;29.65;5.75;;;;;;;;;;5034190;28;20209;-70
2022/10/02 00:35:57;;;;;;;28.48;4.80;;;;;;;;;;5037015;28;20621;-70
2022/10/02 00:38:46;;;;;;;23.88;3.63;;;;;;;;;;5035811;28;20177;-69
2022/10/02 00:41:39;;;;;;;20.52;3.75;;;;;;;;;;5041290;28;20235;-70
2022/10/02 00:44:07;;;;;;;16.90;3.40;;;;;;;;;;5044210;28;20174;-71
2022/10/02 00:46:44;;;;;;;18.48;3.55;;;;;;;;;;5030785;28;20178;-70
2022/10/02 00:49:33;;;;;;;24.98;4.00;;;;;;;;;;5047470;28;20185;-72
2022/10/02 00:52:12;;;;;;;29.13;4.55;;;;;;;;;;5041359;28;20190;-72
2022/10/02 00:54:43;;;;;;;21.10;3.53;;;;;;;;;;5032612;28;20205;-72
2022/10/02 00:57:37;;;;;;;18.27;3.80;;;;;;;;;;5039980;28;20540;-72
2022/10/02 01:00:16;;;;;;;18.50;4.15;;;;;;;;;;5031561;28;20188;-71
2022/10/02 01:03:06;;;;;;;26.20;4.68;;;;;;;;;;5028241;28;20201;-71
2022/10/02 01:05:33;;;;;;;22.75;4.78;;;;;;;;;;5033191;28;20171;-71
2022/10/02 01:07:59;;;;;;;35.40;5.47;;;;;;;;;;5040247;28;20272;-71
2022/10/02 01:10:26;;;;;;;30.73;6.63;;;;;;;;;;5032647;28;20189;-71
2022/10/02 01:12:52;;;;;;;31.88;5.28;;;;;;;;;;5033520;28;20189;-71
2022/10/02 01:15:21;;;;;;;35.17;5.97;;;;;;;;;;5039449;28;20246;-71
2022/10/02 01:17:49;;;;;;;39.45;6.35;;;;;;;;;;5027110;28;20194;-70
2022/10/02 01:20:18;;;;;;;26.60;5.38;;;;;;;;;;5031765;28;20193;-69
2022/10/02 01:23:06;;;;;;;35.40;5.95;;;;;;;;;;5029123;28;20194;-68
2022/10/02 01:25:31;;;;;;;30.02;5.82;;;;;;;;;;5028986;28;20831;-70
2022/10/02 01:27:57;;;;;;;32.67;5.85;;;;;;;;;;5033607;28;20273;-69
2022/10/02 01:30:23;;;;;;;32.58;5.40;;;;;;;;;;5030144;28;20225;-69
2022/10/02 01:32:54;;;;;;;31.63;5.18;;;;;;;;;;5031951;28;20218;-69
2022/10/02 01:35:23;;;;;;;21.98;4.55;;;;;;;;;;5030500;28;20189;-70
2022/10/02 01:37:50;;;;;;;24.45;4.45;;;;;;;;;;5032325;28;20220;-70
2022/10/02 01:40:28;;;;;;;20.95;4.15;;;;;;;;;;5041415;28;20210;-70
2022/10/02 01:43:01;;;;;;;27.80;4.15;;;;;;;;;;5039211;28;20189;-70
2022/10/02 01:46:00;;;;;;;20.88;3.45;;;;;;;;;;5028308;28;20198;-70
2022/10/02 01:48:45;;;;;;;20.10;3.55;;;;;;;;;;5040170;28;20677;-70
2022/10/02 01:51:34;;;;;;;14.15;2.92;;;;;;;;;;5034198;28;20644;-70
2022/10/02 01:54:40;;;;;;;14.00;2.50;;;;;;;;;;5031040;28;20240;-70
2022/10/02 01:57:20;;;;;;;20.98;3.33;;;;;;;;;;5031921;28;20868;-70
2022/10/02 02:00:00;;;;;;;11.98;2.50;;;;;;;;;;5027218;28;20177;-70
2022/10/02 02:02:52;;;;;;;12.32;2.25;;;;;;;;;;5031298;28;20649;-69
2022/10/02 02:05:49;;;;;;;14.95;2.15;;;;;;;;;;5028164;28;20182;-70
2022/10/02 02:08:48;;;;;;;12.63;2.10;;;;;;;;;;5027045;28;20182;-70
2022/10/02 02:11:16;;;;;;;10.55;2.22;;;;;;;;;;5026161;28;20501;-70
2022/10/02 02:14:10;;;;;;;12.40;2.40;;;;;;;;;;5031509;28;20209;-70
2022/10/02 02:16:44;;;;;;;14.68;2.53;;;;;;;;;;5028231;28;20533;-70
2022/10/02 02:19:21;;;;;;;11.18;1.85;;;;;;;;;;5035201;28;20337;-70
2022/10/02 02:21:50;;;;;;;9.07;1.85;;;;;;;;;;5027745;28;20186;-70
2022/10/02 02:24:25;;;;;;;8.80;1.67;;;;;;;;;;5030008;28;20277;-69
2022/10/02 02:26:55;;;;;;;13.80;1.83;;;;;;;;;;5032962;28;20208;-70
2022/10/02 02:29:22;;;;;;;12.43;1.90;;;;;;;;;;5036753;28;20234;-70
2022/10/02 02:31:56;;;;;;;13.90;2.00;;;;;;;;;;5030554;28;20213;-70
2022/10/02 02:34:29;;;;;;;13.13;2.05;;;;;;;;;;5027753;28;20209;-70
2022/10/02 02:37:00;;;;;;;10.20;2.53;;;;;;;;;;5036580;28;20178;-70
2022/10/02 02:39:41;;;;;;;8.52;1.85;;;;;;;;;;5044833;28;20271;-69
2022/10/02 02:42:09;;;;;;;9.45;2.28;;;;;;;;;;5040344;28;20714;-69
2022/10/02 02:44:41;;;;;;;10.43;1.70;;;;;;;;;;5038555;28;20646;-70
2022/10/02 02:47:23;;;;;;;11.93;1.90;;;;;;;;;;5039835;28;20192;-69
2022/10/02 02:50:03;;;;;;;10.80;2.13;;;;;;;;;;5039631;28;20196;-70
2022/10/02 02:52:39;;;;;;;8.95;2.30;;;;;;;;;;5047490;28;20192;-69
2022/10/02 02:55:21;;;;;;;11.65;2.60;;;;;;;;;;5039983;28;20198;-70
2022/10/02 02:58:04;;;;;;;9.10;2.20;;;;;;;;;;5035614;28;20787;-70
2022/10/02 03:00:30;;;;;;;13.55;2.13;;;;;;;;;;5041043;28;20177;-70
2022/10/02 03:02:55;;;;;;;11.27;2.28;;;;;;;;;;5032234;28;20186;-70
2022/10/02 03:05:23;;;;;;;9.52;2.80;;;;;;;;;;5032535;28;20174;-70
2022/10/02 03:07:59;;;;;;;17.88;3.13;;;;;;;;;;5035401;28;20186;-70
2022/10/02 03:10:49;;;;;;;12.73;2.55;;;;;;;;;;5049321;28;20268;-70
2022/10/02 03:13:30;;;;;;;11.68;3.20;;;;;;;;;;5037885;28;20201;-70
2022/10/02 03:16:04;;;;;;;10.25;3.10;;;;;;;;;;5033523;28;20212;-70
2022/10/02 03:18:50;;;;;;;12.98;3.25;;;;;;;;;;5033663;28;20178;-70
2022/10/02 03:21:38;;;;;;;11.63;3.20;;;;;;;;;;5044885;28;20190;-70
2022/10/02 03:24:06;;;;;;;5.28;2.53;;;;;;;;;;5038253;28;20189;-70
2022/10/02 03:26:40;;;;;;;13.98;3.50;;;;;;;;;;5034545;28;20185;-70
2022/10/02 03:29:14;;;;;;;16.73;3.90;;;;;;;;;;5033932;28;20190;-69
2022/10/02 03:31:40;;;;;;;18.05;4.15;;;;;;;;;;5031909;28;20205;-70
2022/10/02 03:34:06;;;;;;;14.30;4.82;;;;;;;;;;5038624;28;20210;-69
2022/10/02 03:36:32;;;;;;;14.68;4.88;;;;;;;;;;5030199;28;20243;-69
2022/10/02 03:39:00;;;;;;;14.50;5.97;;;;;;;;;;5034954;28;20186;-69
2022/10/02 03:41:26;;;;;;;24.40;7.00;;;;;;;;;;5037807;28;20591;-69
2022/10/02 03:43:51;;;;;;;17.15;7.97;;;;;;;;;;5036614;28;20192;-69
2022/10/02 03:46:16;;;;;;;17.90;8.05;;;;;;;;;;5037598;28;20616;-69
2022/10/02 03:48:42;;;;;;;29.30;9.90;;;;;;;;;;5035558;28;20182;-70
2022/10/02 03:51:07;;;;;;;26.35;9.40;;;;;;;;;;5037521;28;20177;-70
2022/10/02 03:53:33;;;;;;;28.55;11.65;;;;;;;;;;5050060;28;20641;-69
2022/10/02 03:56:07;;;;;;;26.80;11.25;;;;;;;;;;5045712;28;20185;-70
2022/10/02 03:58:33;;;;;;;28.58;11.60;;;;;;;;;;5033142;28;20178;-69
2022/10/02 04:01:12;;;;;;;23.70;11.15;;;;;;;;;;5029628;28;20844;-70
2022/10/02 04:03:42;;;;;;;23.85;11.07;;;;;;;;;;5037011;28;20189;-69
2022/10/02 04:06:17;;;;;;;28.77;11.13;;;;;;;;;;5030812;28;20186;-70
2022/10/02 04:08:53;;;;;;;28.60;11.90;;;;;;;;;;5037502;28;20689;-70
2022/10/02 04:11:35;;;;;;;37.47;13.85;;;;;;;;;;5037589;28;20181;-69
2022/10/02 04:14:07;;;;;;;36.50;14.35;;;;;;;;;;5031823;28;20202;-70
2022/10/02 04:16:45;;;;;;;32.85;13.63;;;;;;;;;;5044310;28;20185;-70
2022/10/02 04:19:21;;;;;;;30.70;14.63;;;;;;;;;;5037446;28;20204;-70
2022/10/02 04:21:58;;;;;;;28.98;13.82;;;;;;;;;;5036580;28;20226;-70
2022/10/02 04:24:46;;;;;;;37.95;13.52;;;;;;;;;;5029489;28;20232;-70
2022/10/02 04:27:17;;;;;;;27.67;13.35;;;;;;;;;;5038491;28;20186;-70
2022/10/02 04:29:47;;;;;;;34.55;14.77;;;;;;;;;;5030201;28;20236;-70
2022/10/02 04:32:15;;;;;;;34.42;15.73;;;;;;;;;;5044598;28;20264;-70
2022/10/02 04:34:41;;;;;;;34.97;14.52;;;;;;;;;;5028268;28;20233;-70
2022/10/02 04:37:46;;;;;;;38.65;14.77;;;;;;;;;;5035092;28;20210;-70
2022/10/02 04:40:17;;;;;;;40.15;15.63;;;;;;;;;;5046505;28;20259;-70
2022/10/02 04:43:40;;;;;;;48.15;15.50;;;;;;;;;;5037412;28;20190;-70
2022/10/02 04:46:31;;;;;;;35.17;14.43;;;;;;;;;;5015489;28;20200;-70
2022/10/02 04:49:20;;;;;;;42.22;14.90;;;;;;;;;;5019571;28;20785;-70
2022/10/02 04:51:57;;;;;;;38.50;16.30;;;;;;;;;;5037338;28;20206;-70
2022/10/02 04:54:57;;;;;;;48.40;16.23;;;;;;;;;;5034137;28;20201;-70
2022/10/02 04:57:56;;;;;;;42.05;15.88;;;;;;;;;;5031417;28;20212;-70
2022/10/02 05:00:35;;;;;;;45.75;16.60;;;;;;;;;;5037105;28;20189;-70
2022/10/02 05:03:16;;;;;;;46.25;16.90;;;;;;;;;;5028702;28;20193;-69
2022/10/02 05:06:06;;;;;;;39.75;15.85;;;;;;;;;;5026841;28;20178;-70
2022/10/02 05:08:50;;;;;;;38.97;15.82;;;;;;;;;;5031712;28;20399;-70
2022/10/02 05:11:49;;;;;;;45.63;17.60;;;;;;;;;;5038355;28;20177;-70
2022/10/02 05:14:37;;;;;;;43.17;17.50;;;;;;;;;;5028709;28;20251;-70
2022/10/02 05:17:09;;;;;;;40.42;17.48;;;;;;;;;;5029438;28;20186;-70
2022/10/02 05:19:58;;;;;;;40.45;17.33;;;;;;;;;;5036895;28;20178;-70
2022/10/02 05:23:09;;;;;;;54.88;18.00;;;;;;;;;;5034537;28;20485;-70
2022/10/02 05:25:44;;;;;;;36.45;15.90;;;;;;;;;;5035196;28;20498;-70
2022/10/02 05:28:56;;;;;;;40.40;16.48;;;;;;;;;;5034457;28;20343;-70
2022/10/02 05:31:55;;;;;;;48.60;16.83;;;;;;;;;;5035146;28;20659;-70
2022/10/02 05:34:58;;;;;;;52.08;16.85;;;;;;;;;;5037948;28;20209;-70
2022/10/02 05:37:37;;;;;;;43.92;16.60;;;;;;;;;;5038172;28;20184;-70
2022/10/02 05:40:19;;;;;;;44.90;17.77;;;;;;;;;;5034191;28;20598;-70
2022/10/02 05:43:11;;;;;;;39.65;15.40;;;;;;;;;;5035126;28;20190;-70
2022/10/02 05:45:42;;;;;;;35.00;14.23;;;;;;;;;;5032424;28;20607;-70
2022/10/02 05:48:19;;;;;;;52.28;13.40;;;;;;;;;;5037575;28;20267;-70
2022/10/02 05:50:50;;;;;;;56.60;15.27;;;;;;;;;;5038465;28;20189;-70
2022/10/02 05:53:30;;;;;;;50.75;14.25;;;;;;;;;;5036445;28;20178;-70
2022/10/02 05:56:03;;;;;;;44.38;15.63;;;;;;;;;;5028095;28;20251;-70
2022/10/02 05:58:43;;;;;;;39.10;14.95;;;;;;;;;;5030286;28;20194;-70
2022/10/02 06:01:16;;;;;;;46.78;14.35;;;;;;;;;;5031222;28;20205;-71
2022/10/02 06:03:49;;;;;;;34.72;13.93;;;;;;;;;;5032388;28;20269;-70
2022/10/02 06:06:22;;;;;;;46.03;14.48;;;;;;;;;;5030216;28;20204;-70
2022/10/02 06:09:00;;;;;;;42.50;14.73;;;;;;;;;;5033469;28;20247;-70
2022/10/02 06:11:38;;;;;;;39.13;14.07;;;;;;;;;;5031613;28;20213;-70
2022/10/02 06:14:13;;;;;;;44.95;13.75;;;;;;;;;;5030814;28;20264;-70
2022/10/02 06:16:45;;;;;;;47.20;13.45;;;;;;;;;;5033710;28;20188;-70
2022/10/02 06:19:36;;;;;;;41.90;12.95;;;;;;;;;;5041586;28;20193;-70
2022/10/02 06:22:14;;;;;;;36.25;11.98;;;;;;;;;;5032724;28;20619;-70
2022/10/02 06:24:48;;;;;;;35.60;12.10;;;;;;;;;;5037821;28;20669;-70
2022/10/02 06:27:28;;;;;;;42.03;13.05;;;;;;;;;;5044016;28;20236;-70
2022/10/02 06:30:01;;;;;;;40.05;12.68;;;;;;;;;;5049530;28;20301;-70
2022/10/02 06:32:39;;;;;;;30.17;11.65;;;;;;;;;;5045385;28;20300;-70
2022/10/02 06:35:11;;;;;;;39.80;12.05;;;;;;;;;;5036361;28;20762;-70
2022/10/02 06:37:50;;;;;;;42.80;11.05;;;;;;;;;;5033316;28;20276;-70
2022/10/02 06:40:38;;;;;;;37.25;11.23;;;;;;;;;;5033042;28;20186;-70
2022/10/02 06:43:17;;;;;;;40.00;13.70;;;;;;;;;;5036492;28;20178;-70
2022/10/02 06:46:03;;;;;;;48.05;11.10;;;;;;;;;;5031699;28;20194;-70
2022/10/02 06:48:53;;;;;;;33.60;11.27;;;;;;;;;;5042249;28;20196;-70
2022/10/02 06:51:58;;;;;;;33.58;10.90;;;;;;;;;;5037401;28;20192;-69
2022/10/02 06:54:33;;;;;;;41.55;11.43;;;;;;;;;;5021446;28;20233;-70
2022/10/02 06:57:42;;;;;;;32.22;9.93;;;;;;;;;;5038811;28;20273;-70
2022/10/02 07:00:16;;;;;;;39.55;9.52;;;;;;;;;;5038941;28;20182;-70
2022/10/02 07:03:05;;;;;;;29.67;9.57;;;;;;;;;;5047281;28;20279;-70
2022/10/02 07:05:36;;;;;;;41.85;10.88;;;;;;;;;;5033680;28;20189;-70
2022/10/02 07:08:17;;;;;;;37.45;9.45;;;;;;;;;;5034422;28;20235;-70
2022/10/02 07:10:55;;;;;;;35.92;8.45;;;;;;;;;;5035145;28;20181;-70
2022/10/02 07:13:36;;;;;;;34.33;9.35;;;;;;;;;;5034061;28;20190;-70
2022/10/02 07:16:24;;;;;;;34.45;9.85;;;;;;;;;;5036689;28;20541;-70
2022/10/02 07:18:52;;;;;;;42.45;10.10;;;;;;;;;;5036086;28;20185;-71
2022/10/02 07:21:38;;;;;;;30.48;8.48;;;;;;;;;;5035657;28;20193;-70
2022/10/02 07:24:12;;;;;;;35.95;10.38;;;;;;;;;;5046235;28;20320;-70
2022/10/02 07:27:06;;;;;;;32.63;9.23;;;;;;;;;;5037098;28;20274;-70
2022/10/02 07:29:54;;;;;;;29.02;9.05;;;;;;;;;;5042309;28;20319;-68
2022/10/02 07:32:36;;;;;;;36.55;8.70;;;;;;;;;;5033294;28;20295;-69
2022/10/02 07:35:31;;;;;;;25.33;6.78;;;;;;;;;;5042972;28;20653;-70
2022/10/02 07:38:15;;;;;;;24.65;6.95;;;;;;;;;;5032688;28;20232;-70
2022/10/02 07:40:46;;;;;;;26.60;7.90;;;;;;;;;;5030903;28;20178;-70
2022/10/02 07:43:26;;;;;;;22.33;5.60;;;;;;;;;;5031307;28;20189;-70
2022/10/02 07:46:27;;;;;;;26.80;6.25;;;;;;;;;;5026447;28;20273;-70
2022/10/02 07:48:59;;;;;;;27.63;6.47;;;;;;;;;;5027858;28;20255;-70
2022/10/02 07:51:48;;;;;;;25.80;6.70;;;;;;;;;;5032147;28;20525;-69
2022/10/02 07:54:26;;;;;;;23.73;5.85;;;;;;;;;;5025680;28;20666;-70
2022/10/02 07:56:55;;;;;;;26.35;6.05;;;;;;;;;;5027661;28;20581;-69
2022/10/02 07:59:21;;;;;;;25.90;5.80;;;;;;;;;;5026748;28;20684;-70
2022/10/02 08:01:49;;;;;;;21.02;5.35;;;;;;;;;;5029365;28;20210;-70
2022/10/02 08:04:28;;;;;;;27.15;6.53;;;;;;;;;;5043224;28;20193;-69
2022/10/02 08:07:00;;;;;;;26.95;5.50;;;;;;;;;;5038023;28;20203;-69
2022/10/02 08:09:45;;;;;;;23.27;4.47;;;;;;;;;;5042973;28;20197;-69
2022/10/02 08:12:14;;;;;;;20.23;4.97;;;;;;;;;;5036194;28;20236;-70
2022/10/02 08:14:41;;;;;;;20.90;5.07;;;;;;;;;;5031168;28;20340;-70
2022/10/02 08:17:26;;;;;;;19.58;4.63;;;;;;;;;;5033734;28;20182;-70
2022/10/02 08:19:56;;;;;;;18.77;4.88;;;;;;;;;;5029910;28;20685;-70
2022/10/02 08:22:38;;;;;;;21.15;4.57;;;;;;;;;;5046657;28;20672;-69
2022/10/02 08:25:24;;;;;;;18.27;3.70;;;;;;;;;;5029816;28;20203;-69
2022/10/02 08:28:04;;;;;;;25.13;3.80;;;;;;;;;;5037390;28;20186;-70
2022/10/02 08:30:30;;;;;;;20.08;4.35;;;;;;;;;;5033242;28;20239;-70
2022/10/02 08:32:55;;;;;;;23.67;4.43;;;;;;;;;;5042717;28;20289;-69
2022/10/02 08:35:30;;;;;;;23.92;4.53;;;;;;;;;;5031066;28;20228;-70
2022/10/02 08:38:18;;;;;;;15.82;4.22;;;;;;;;;;5031271;28;20626;-70
2022/10/02 08:41:29;;;;;;;19.27;3.80;;;;;;;;;;5038482;28;20298;-70
2022/10/02 08:44:20;;;;;;;21.92;3.85;;;;;;;;;;5029446;28;20663;-69
2022/10/02 08:46:55;;;;;;;15.35;3.45;;;;;;;;;;5030839;28;20285;-69
2022/10/02 08:49:23;;;;;;;20.40;3.72;;;;;;;;;;5030145;28;20181;-69
2022/10/02 08:52:20;;;;;;;22.67;3.70;;;;;;;;;;5029145;28;20182;-69
2022/10/02 08:55:04;;;;;;;20.05;4.15;;;;;;;;;;5033310;28;20264;-69
2022/10/02 08:57:48;;;;;;;20.05;3.95;;;;;;;;;;5031674;28;20217;-70
2022/10/02 09:00:16;;;;;;;15.57;3.40;;;;;;;;;;5040855;28;20524;-69
2022/10/02 09:03:24;;;;;;;21.25;3.75;;;;;;;;;;5036292;28;20187;-69
2022/10/02 09:06:23;;;;;;;14.45;3.45;;;;;;;;;;5033846;28;20193;-70
2022/10/02 09:08:51;;;;;;;16.77;3.25;;;;;;;;;;5047078;28;20561;-70
2022/10/02 09:11:56;;;;;;;14.98;3.20;;;;;;;;;;5029087;28;20189;-69
2022/10/02 09:14:43;;;;;;;16.00;3.28;;;;;;;;;;5027222;28;20247;-70
2022/10/02 09:17:33;;;;;;;15.98;3.25;;;;;;;;;;5036222;28;20250;-69
2022/10/02 09:20:01;;;;;;;15.35;2.70;;;;;;;;;;5035404;28;20192;-70
2022/10/02 09:23:03;;;;;;;19.88;2.78;;;;;;;;;;5036136;28;20186;-68
2022/10/02 09:25:53;;;;;;;12.95;2.75;;;;;;;;;;5038693;28;20616;-70
2022/10/02 09:28:36;;;;;;;18.27;2.78;;;;;;;;;;5028672;28;20186;-68
2022/10/02 09:31:31;;;;;;;11.18;2.20;;;;;;;;;;5034112;28;20225;-68
2022/10/02 09:34:24;;;;;;;13.07;2.40;;;;;;;;;;5037937;28;20209;-69
2022/10/02 09:37:15;;;;;;;14.02;2.65;;;;;;;;;;5029020;28;20387;-69
2022/10/02 09:39:58;;;;;;;16.48;2.78;;;;;;;;;;5028221;28;20185;-69
2022/10/02 09:43:00;;;;;;;11.98;2.45;;;;;;;;;;5029069;28;20345;-69
2022/10/02 09:46:05;;;;;;;15.32;2.35;;;;;;;;;;5028540;28;20180;-69
2022/10/02 09:48:44;;;;;;;13.05;2.00;;;;;;;;;;5040253;28;20559;-70
2022/10/02 09:51:44;;;;;;;17.27;2.53;;;;;;;;;;5048639;28;20664;-69
2022/10/02 09:54:46;;;;;;;14.80;2.40;;;;;;;;;;5034298;28;20666;-70
2022/10/02 09:57:34;;;;;;;13.73;2.33;;;;;;;;;;5031650;28;20221;-70
2022/10/02 10:00:18;;;;;;;15.35;2.10;;;;;;;;;;5042130;28;20182;-70
2022/10/02 10:03:17;;;;;;;12.27;1.90;;;;;;;;;;5044424;28;20276;-69
2022/10/02 10:06:09;;;;;;;11.38;1.90;;;;;;;;;;5048202;28;20192;-70
2022/10/02 10:08:59;;;;;;;14.15;2.20;;;;;;;;;;5032273;28;20616;-71
2022/10/02 10:11:57;;;;;;;16.50;2.42;;;;;;;;;;5040210;28;20181;-70
2022/10/02 10:14:53;;;;;;;12.63;2.08;;;;;;;;;;5042611;28;20324;-69
2022/10/02 10:17:56;;;;;;;13.05;2.45;;;;;;;;;;5045467;28;20722;-68
2022/10/02 10:20:50;;;;;;;10.48;1.77;;;;;;;;;;5041217;28;20170;-68
2022/10/02 10:23:35;;;;;;;13.55;2.03;;;;;;;;;;5037827;28;20247;-68
2022/10/02 10:26:42;;;;;;;10.95;2.10;;;;;;;;;;5045331;28;20186;-69
2022/10/02 10:29:20;;;;;;;9.35;1.80;;;;;;;;;;5038994;28;20189;-69
2022/10/02 10:32:06;;;;;;;14.60;2.25;;;;;;;;;;5036048;28;20221;-75
2022/10/02 10:34:50;;;;;;;12.70;2.17;;;;;;;;;;5045149;28;20704;-70
2022/10/02 10:40:51;;;;;;;10.35;1.98;;;;;;;;;;5029084;28;20200;-70
2022/10/02 10:43:55;;;;;;;11.93;1.98;;;;;;;;;;5046296;28;20649;-70
2022/10/02 10:46:39;;;;;;;15.95;2.25;;;;;;;;;;5031643;28;20185;-70
2022/10/02 10:49:14;;;;;;;11.35;2.00;;;;;;;;;;5031974;28;20196;-69
2022/10/02 10:52:06;;;;;;;11.38;1.80;;;;;;;;;;5031478;28;20567;-70
2022/10/02 10:54:51;;;;;;;11.13;1.90;;;;;;;;;;5037153;28;20233;-70
2022/10/02 10:57:41;;;;;;;14.13;2.35;;;;;;;;;;5035714;28;20567;-69
2022/10/02 11:00:24;;;;;;;14.90;1.92;;;;;;;;;;5042770;28;20515;-69
2022/10/02 11:03:16;;;;;;;11.52;2.22;;;;;;;;;;5036154;28;20189;-69
2022/10/02 11:06:07;;;;;;;11.93;2.15;;;;;;;;;;5036311;28;20232;-69
2022/10/02 11:08:57;;;;;;;14.55;2.50;;;;;;;;;;5041014;28;20213;-68
2022/10/02 11:11:56;;;;;;;13.18;1.85;;;;;;;;;;5044233;28;20182;-69
2022/10/02 11:14:48;;;;;;;13.73;2.03;;;;;;;;;;5031471;28;20541;-71
2022/10/02 11:17:25;;;;;;;12.13;1.80;;;;;;;;;;5031007;28;20605;-70
2022/10/02 11:19:59;;;;;;;13.27;2.00;;;;;;;;;;5038116;28;20181;-69
2022/10/02 11:22:39;;;;;;;12.70;2.08;;;;;;;;;;5038193;28;20186;-69
2022/10/02 11:25:27;;;;;;;10.32;1.70;;;;;;;;;;5041930;28;20182;-69
2022/10/02 11:28:12;;;;;;;11.85;2.15;;;;;;;;;;5035689;28;20177;-69
2022/10/02 11:31:22;;;;;;;10.07;1.52;;;;;;;;;;5043664;28;20299;-69
2022/10/02 11:34:15;;;;;;;12.65;2.20;;;;;;;;;;5039416;28;20355;-68
2022/10/02 11:36:41;;;;;;;9.75;1.88;;;;;;;;;;5033444;28;20190;-67
2022/10/02 11:39:14;;;;;;;10.32;1.67;;;;;;;;;;5033789;28;20641;-70
2022/10/02 11:41:48;;;;;;;13.48;2.08;;;;;;;;;;5033322;28;20201;-70
2022/10/02 11:44:36;;;;;;;10.13;1.90;;;;;;;;;;5030469;28;20173;-68
2022/10/02 11:47:20;;;;;;;5.97;1.70;;;;;;;;;;5032563;28;20286;-69
2022/10/02 11:49:59;;;;;;;7.90;1.55;;;;;;;;;;5029005;28;20279;-70
2022/10/02 11:52:44;;;;;;;11.10;2.00;;;;;;;;;;5036428;28;20212;-67
2022/10/02 11:55:29;;;;;;;7.93;1.42;;;;;;;;;;5037425;28;20264;-68
2022/10/02 11:58:03;;;;;;;11.70;1.75;;;;;;;;;;5032872;28;20197;-68
2022/10/02 12:00:32;;;;;;;8.80;1.60;;;;;;;;;;5033209;28;20195;-68
2022/10/02 12:03:10;;;;;;;9.88;1.83;;;;;;;;;;5029046;28;20372;-70
2022/10/02 12:06:14;;;;;;;11.15;1.42;;;;;;;;;;5030236;28;20186;-70
2022/10/02 12:09:02;;;;;;;10.68;2.13;;;;;;;;;;5030131;28;20284;-69
2022/10/02 12:11:55;;;;;;;12.02;2.00;;;;;;;;;;5027182;28;20186;-69
2022/10/02 12:14:37;;;;;;;9.25;1.48;;;;;;;;;;5032069;28;20209;-70
2022/10/02 12:17:45;;;;;;;10.43;2.28;;;;;;;;;;5028805;28;20178;-68
2022/10/02 12:26:57;;;;;;;11.27;1.80;;;;;;;;;;5031626;28;20233;-70
2022/10/02 12:29:32;;;;;;;13.70;2.42;;;;;;;;;;5028382;28;20217;-68
2022/10/02 12:32:37;;;;;;;12.93;1.67;;;;;;;;;;5028358;28;20201;-68
2022/10/02 12:35:41;;;;;;;14.77;2.08;;;;;;;;;;5025402;28;20216;-70
2022/10/02 12:38:27;;;;;;;11.80;2.15;;;;;;;;;;5025563;28;20255;-69
2022/10/02 12:40:59;;;;;;;10.30;2.10;;;;;;;;;;5027819;28;20717;-68
2022/10/02 12:44:05;;;;;;;10.82;2.13;;;;;;;;;;5027995;28;20204;-70
2022/10/02 12:46:58;;;;;;;11.90;2.08;;;;;;;;;;5028203;28;20170;-69
2022/10/02 12:49:24;;;;;;;12.95;2.05;;;;;;;;;;5025281;28;20201;-69
2022/10/02 12:52:14;;;;;;;9.82;1.80;;;;;;;;;;5028257;28;20202;-69
2022/10/02 12:54:55;;;;;;;7.75;1.70;;;;;;;;;;5027157;28;20615;-68
2022/10/02 12:57:53;;;;;;;11.38;2.17;;;;;;;;;;5030750;28;20613;-69
2022/10/02 13:00:22;;;;;;;10.05;1.50;;;;;;;;;;5027321;28;20271;-69
2022/10/02 13:03:31;;;;;;;11.23;1.90;;;;;;;;;;5030161;28;20182;-73
2022/10/02 13:06:16;;;;;;;9.38;1.67;;;;;;;;;;5030375;28;20184;-69
2022/10/02 13:09:01;;;;;;;10.45;2.40;;;;;;;;;;5028809;28;20178;-69
2022/10/02 13:11:45;;;;;;;10.23;2.13;;;;;;;;;;4334822;28;10000722;-68
2022/10/02 13:14:25;;;;;;;11.65;1.88;;;;;;;;;;5031836;28;20280;-68
2022/10/02 13:17:04;;;;;;;9.32;1.73;;;;;;;;;;5039077;28;20229;-69
2022/10/02 13:19:56;;;;;;;10.65;2.42;;;;;;;;;;5030629;28;20190;-70
2022/10/02 13:22:35;;;;;;;14.13;1.70;;;;;;;;;;5031258;28;20194;-69
2022/10/02 13:25:30;;;;;;;11.40;2.22;;;;;;;;;;5034851;28;20184;-70
2022/10/02 13:27:59;;;;;;;8.77;2.03;;;;;;;;;;5028747;28;20707;-69
2022/10/02 13:30:32;;;;;;;13.32;2.17;;;;;;;;;;5032980;28;20325;-69
2022/10/02 13:33:11;;;;;;;7.43;1.73;;;;;;;;;;5030498;28;20202;-67
2022/10/02 13:36:05;;;;;;;6.78;1.35;;;;;;;;;;5027444;28;20231;-68
2022/10/02 13:38:45;;;;;;;6.88;1.30;;;;;;;;;;5037525;28;20178;-71
2022/10/02 13:41:26;;;;;;;8.40;1.58;;;;;;;;;;5031530;28;20189;-69
2022/10/02 13:44:15;;;;;;;7.22;1.33;;;;;;;;;;5024215;28;20665;-69
2022/10/02 13:46:55;;;;;;;6.53;1.52;;;;;;;;;;5032853;28;20190;-69
2022/10/02 13:49:42;;;;;;;8.48;1.33;;;;;;;;;;5026892;28;20622;-69
2022/10/02 13:52:33;;;;;;;9.50;1.50;;;;;;;;;;5026390;28;20744;-70
2022/10/02 13:55:20;;;;;;;11.90;1.38;;;;;;;;;;5036047;28;20202;-67
2022/10/02 13:58:16;;;;;;;10.27;1.77;;;;;;;;;;5030542;28;20200;-73
2022/10/02 14:01:03;;;;;;;5.40;1.27;;;;;;;;;;5029808;28;20671;-69
2022/10/02 14:03:40;;;;;;;9.90;1.63;;;;;;;;;;5037353;28;20177;-69
2022/10/02 14:06:30;;;;;;;10.77;1.77;;;;;;;;;;5027085;28;20788;-72
2022/10/02 14:09:23;;;;;;;8.68;1.38;;;;;;;;;;5032319;28;20218;-68
2022/10/02 14:12:01;;;;;;;10.80;2.42;;;;;;;;;;5030323;28;20190;-68
2022/10/02 14:14:55;;;;;;;9.93;1.80;;;;;;;;;;5026715;28;20198;-70
2022/10/02 14:17:52;;;;;;;7.63;1.80;;;;;;;;;;5028229;28;20212;-67
2022/10/02 14:20:29;;;;;;;12.30;1.88;;;;;;;;;;5022777;28;20198;-69
2022/10/02 14:23:17;;;;;;;10.80;1.75;;;;;;;;;;5033571;28;20522;-69
2022/10/02 14:25:56;;;;;;;8.90;1.65;;;;;;;;;;5033010;28;20190;-68
2022/10/02 14:28:54;;;;;;;8.82;1.50;;;;;;;;;;5024842;28;20189;-68
2022/10/02 14:31:39;;;;;;;13.10;1.77;;;;;;;;;;5033117;28;20215;-69
2022/10/02 14:34:31;;;;;;;9.73;1.67;;;;;;;;;;5033217;28;20202;-68
2022/10/02 14:37:32;;;;;;;8.75;1.63;;;;;;;;;;5031940;28;20711;-69
2022/10/02 14:40:02;;;;;;;9.02;1.98;;;;;;;;;;5034183;28;20174;-69
2022/10/02 14:43:05;;;;;;;8.80;1.80;;;;;;;;;;5036396;28;20204;-70
2022/10/02 14:45:54;;;;;;;7.95;2.00;;;;;;;;;;5025538;28;20648;-70
2022/10/02 14:48:41;;;;;;;7.35;1.65;;;;;;;;;;5040786;28;20205;-68
2022/10/02 14:51:38;;;;;;;8.65;1.58;;;;;;;;;;5030789;28;20190;-68
2022/10/02 14:54:19;;;;;;;8.45;1.58;;;;;;;;;;5031033;28;20229;-69
2022/10/02 14:56:50;;;;;;;10.18;1.67;;;;;;;;;;5032857;28;20177;-69
2022/10/02 14:59:43;;;;;;;10.10;1.75;;;;;;;;;;5029899;28;20592;-70
2022/10/02 15:02:16;;;;;;;10.43;1.60;;;;;;;;;;5036989;28;20654;-69
2022/10/02 15:05:05;;;;;;;10.85;1.77;;;;;;;;;;5033060;28;20239;-68
2022/10/02 15:07:33;;;;;;;10.57;1.88;;;;;;;;;;5026899;28;20194;-67
2022/10/02 15:10:48;;;;;;;10.40;2.13;;;;;;;;;;5038105;28;20193;-69
2022/10/02 15:13:38;;;;;;;11.23;1.70;;;;;;;;;;5009768;28;20273;-71
2022/10/02 15:19:18;;;;;;;14.05;3.08;;;;;;;;;;5022414;28;20232;-69
2022/10/02 15:21:52;;;;;;;9.70;2.20;;;;;;;;;;5029855;28;20181;-71
2022/10/02 15:24:30;;;;;;;13.45;1.70;;;;;;;;;;5034073;28;20180;-68
2022/10/02 15:27:06;;;;;;;8.32;1.88;;;;;;;;;;5037433;28;20512;-71
2022/10/02 15:29:38;;;;;;;11.95;2.33;;;;;;;;;;5034171;28;20221;-69
2022/10/02 15:32:16;;;;;;;12.90;2.20;;;;;;;;;;5031279;28;20229;-72
2022/10/02 15:35:07;;;;;;;14.05;2.78;;;;;;;;;;5033667;28;20212;-69
2022/10/02 15:38:03;;;;;;;12.02;1.67;;;;;;;;;;5032552;28;20227;-70
2022/10/02 15:40:54;;;;;;;17.55;2.33;;;;;;;;;;5036135;28;20178;-69
2022/10/02 15:43:50;;;;;;;12.68;2.75;;;;;;;;;;5032372;28;20673;-70
2022/10/02 15:46:41;;;;;;;12.10;2.13;;;;;;;;;;5029759;28;20694;-70
2022/10/02 15:49:17;;;;;;;11.80;1.88;;;;;;;;;;5033025;28;20650;-68
2022/10/02 15:52:24;;;;;;;9.88;1.80;;;;;;;;;;5029460;28;20193;-70
2022/10/02 15:55:14;;;;;;;9.20;2.38;;;;;;;;;;5027901;28;20775;-69
2022/10/02 15:57:52;;;;;;;13.25;2.03;;;;;;;;;;5036754;28;20220;-70
2022/10/02 16:00:20;;;;;;;8.48;2.25;;;;;;;;;;5031216;28;20215;-70
2022/10/02 16:03:10;;;;;;;7.85;1.58;;;;;;;;;;5036499;28;20188;-69
2022/10/02 16:05:58;;;;;;;10.63;2.15;;;;;;;;;;5033029;28;20253;-68
2022/10/02 16:08:35;;;;;;;10.35;1.73;;;;;;;;;;5030039;28;20197;-70
2022/10/02 16:11:17;;;;;;;15.82;2.53;;;;;;;;;;5037506;28;20191;-71